INDIA METEOROLOGICAL DEPARTMENT, R.M.C. NEW DELHI
Dated:21-08-2019
METARS


Ahmedabad  
VAAH 211530Z 25002KT 4000 HZ FEW020 29/24 Q1006 NOSIG=
Allahabad  
VEAB 211530Z 01003KT 6000 SCT008 SCT015 FEW025CB OVC090 27/26 Q1003 TEMPO TSRA=
Aurangabad 
VAAU 211500Z 27005KT 6000 SCT020 SCT025 26/21 Q1010 NOSIG=
Bangalore  
VOBL 211530Z 24009KT 5000 DZ SCT008 SCT012 BKN080 22/22 Q1014 NOSIG=
Baroda     
VABO 211530Z 22008KT 6000 FEW020 SCT025 30/23 Q1006 NOSIG=
Bhaunagar  
VABV 211400Z 17008KT 3500 HZ FEW020 FEW025TCU SCT080 28/25 Q1006=
Bhopal     
VABP 211500Z 11006KT 5000 HZ SCT020 BKN100 23/23 Q1008 NOSIG=
Bhubaneswar
VEBS 211530Z 00000KT 5000 HZ FEW018 27/26 Q1002 NOSIG=
Chennai    
VOMM 211530Z 29004KT 6000 FEW020 SCT100 31/26 Q1007 NOSIG=
Coimbatore 
VOCB 211530Z 21007KT 6000 FEW012 BKN080 25/22 Q1012 NOSIG=
Colombo    
VCBI 211540Z 24010KT 9999 SCT018 28/25 Q1011 NOSIG=
Delhi      
VIDP 211530Z 00000KT 3000 HZ FEW035 SCT100 32/23 Q1004 NOSIG=
Gauhati    
VEGT 211530Z 00000KT 3500 BR FEW018 SCT100 31/28 Q1003 NOSIG=
Gaya       
VEGY 211530Z NIL=
Goa        
VOGO 211500Z 28010KT 6000 FEW012 SCT100 28/24 Q1009 NOSIG=
Hyderabad  
VOHS 211530Z 00000KT 6000 -DZ SCT015 SCT025 BKN100 24/23 Q1010=
Indore     
VAID 211500Z 27003KT 4000 HZ FEW020 SCT100 27/24 Q1008 NOSIG=
Jabalpur   
VAJB 211400Z 24006KT 2000 -DZ SCT006 SCT020 BKN080 24/23 Q1005=
Jaipur     
VIJP 211530Z 29006KT 3000 HZ FEW030 30/25 Q1005 NOSIG=
Kochi      
VOCI 211530Z 03003KT 4500 HZ SCT015 BKN080 27/24 Q1011 NOSIG=
Kolkata    
VECC 211530Z 16004KT 4000 HZ FEW020 SCT100 30/27 Q1002 NOSIG=
Kozhikode  
VOCL 211530Z 30004KT 5000 -RA BR FEW008 SCT012 FEW025CB BKN080 26/24 Q1010 NOSIG=
Lucknow    
VILK 211500Z VRB02KT 2500 BR BKN018 OVC090 27/26 Q1003 NOSIG=
Madurai    
VOMD 211530Z 30008KT 6000 SCT018 FEW025CB BKN100 29/22 Q1009 NOSIG=
Mumbai     
VABB 211530Z 26012KT 3000 HZ FEW020 SCT025 29/25 Q1008 NOSIG=
Nagpur     
VANP 211530Z 13002KT 3000 HZ FEW010 SCT020 BKN100 26/24 Q1007 NOSIG=
Patna      
VEPT 211530Z 10004KT 2500 -TSRA SCT018 FEW030CB OVC080 26/25 Q1003 BECMG 3000 BR=
Raipur     
VERP 211500Z 25005KT 6000 SCT020 BKN100 26/24 Q1004 NOSIG=
Surat     
VASU 211530Z 20004KT 5000 HZ SCT020 BKN080 28/25 Q1007 NOSIG=
Ranchi     
VERC 211530Z 00000KT 3000 HZ FEW018 SCT100 26/24 Q1006 NOSIG=
Trichy     
VOTR 211530Z 14004KT 6000 SCT016 SCT100 FEW025CB 29/23 Q1008 NOSIG=
Trivandrum 
VOTV 211530Z 34006KT 3000 BR SCT015 SCT080 27/24 Q1010 NOSIG=
Udaipur    
VAUD 211400Z 00000KT 3000 HZ SCT025 SCT030 26/23 Q1007 NOSIG=
Varanasi   
VEBN 211530Z VRB02KT 2000 -RA SCT020 OVC080 27/26 Q1001 NOSIG=
Vizag      
VOVZ 211500Z 31005KT 3000 -TSRA SCT010 SCT014 FEW025CB OVC080 25/24 Q1004 TEMPO 2500 -TSRA =
Male       
VRMM 211500Z 24006KT 9999 FEW018 BKN270 29/25 Q1011 NOSIG=
Gan        
VRMG 211500Z 23007KT 9999 FEW017TCU BKN110 28/24 Q1013 TEMPO FEW018CB=
Kathmandu  
VNKT 211530Z NIL=
Dhaka      
VGHS 211530Z 20003KT 4000 HZ FEW015 SCT100 31/25 Q1003 NOSIG=
Colombo    
VCBI 211540Z 24010KT 9999 SCT018 28/25 Q1011 NOSIG=
Karachi    
OPKC 211527Z 26008KT 7000 SCT020 29/24 Q1005 NOSIG=
Lahore     
OPLA 211525Z 12004KT 4000 FU SCT100 33/22 Q1002 RMK QFE977 RMK A29.59=
Gorakhpur  
VEGK 211530Z VRB02KT 6000 FEW020 BKN090 27/27 Q1002 NOSIG=
Agra       
VIAG 211530Z 23004KT 6000 SCT025 BKN250 28/28 Q1003 TEMPO -RA=
Bagdogra   
VEBD 211530Z 00000KT 6000 FEW030 SCT090 29/25 Q1004 NOSIG=
Gwalior    
VIGR 211530Z 26003KT 5000 BR FEW025 FEW030CB BKN250 27/25 Q1004 NOSIG=
Pune       
VAPO 211530Z 26006KT 6000 SCT025 BKN250 23/21 Q1012 NOSIG=
Jamnagar   
VAJM 211530Z 24007KT 6000 SCT025 28/24 Q1006 NOSIG=